createdAt,value
2022-09-14T00:01:27.387Z,12.10
2022-09-14T00:04:00.439Z,15.93
2022-09-14T00:06:28.160Z,13.15
2022-09-14T00:08:55.937Z,17.75
2022-09-14T00:11:24.590Z,16.25
2022-09-14T00:13:51.950Z,15.38
2022-09-14T00:16:27.179Z,15.07
2022-09-14T00:18:56.725Z,14.55
2022-09-14T00:21:24.074Z,20.25
2022-09-14T00:23:50.443Z,17.17
2022-09-14T00:26:20.311Z,19.10
2022-09-14T00:28:52.896Z,16.45
2022-09-14T00:31:20.568Z,21.13
2022-09-14T00:33:48.466Z,14.88
2022-09-14T00:36:21.652Z,16.02
2022-09-14T00:38:48.854Z,15.82
2022-09-14T00:41:18.932Z,17.10
2022-09-14T00:43:57.654Z,16.23
2022-09-14T00:46:26.020Z,16.65
2022-09-14T00:48:53.520Z,16.02
2022-09-14T00:51:21.599Z,17.23
2022-09-14T00:53:48.437Z,20.00
2022-09-14T00:56:15.304Z,17.42
2022-09-14T00:58:44.596Z,20.50
2022-09-14T01:01:11.192Z,15.20
2022-09-14T01:03:37.766Z,20.02
2022-09-14T01:06:17.677Z,18.95
2022-09-14T01:09:02.448Z,19.48
2022-09-14T01:11:58.295Z,16.45
2022-09-14T01:14:31.249Z,17.88
2022-09-14T01:17:07.301Z,18.00
2022-09-14T01:19:52.871Z,20.05
2022-09-14T01:22:25.717Z,20.45
2022-09-14T01:24:57.995Z,23.27
2022-09-14T01:27:41.011Z,20.80
2022-09-14T01:30:19.128Z,20.08
2022-09-14T01:32:56.110Z,20.00
2022-09-14T01:35:37.858Z,18.92
2022-09-14T01:38:26.572Z,20.50
2022-09-14T01:40:53.549Z,23.80
2022-09-14T01:43:25.246Z,24.83
2022-09-14T01:45:56.954Z,25.13
2022-09-14T01:49:04.186Z,20.83
2022-09-14T01:51:53.482Z,19.60
2022-09-14T01:54:33.127Z,19.23
2022-09-14T01:57:15.463Z,23.38
2022-09-14T01:59:45.608Z,20.42
2022-09-14T02:02:28.827Z,18.52
2022-09-14T02:05:09.348Z,19.53
2022-09-14T02:07:37.119Z,21.40
2022-09-14T02:10:06.582Z,22.23
2022-09-14T02:12:33.249Z,17.95
2022-09-14T02:14:59.747Z,14.93
2022-09-14T02:17:26.276Z,15.00
2022-09-14T02:19:58.651Z,15.13
2022-09-14T02:22:26.885Z,16.98
2022-09-14T02:24:54.300Z,17.13
2022-09-14T02:27:21.509Z,19.50
2022-09-14T02:29:48.820Z,19.08
2022-09-14T02:32:30.460Z,22.70
2022-09-14T02:35:15.008Z,21.60
2022-09-14T02:38:12.922Z,22.95
2022-09-14T02:40:47.712Z,23.33
2022-09-14T02:43:26.029Z,21.95
2022-09-14T02:46:06.531Z,27.52
2022-09-14T02:48:43.975Z,22.08
2022-09-14T02:51:42.007Z,24.67
2022-09-14T02:54:16.614Z,21.45
2022-09-14T02:56:44.629Z,26.60
2022-09-14T02:59:11.594Z,24.05
2022-09-14T03:01:38.517Z,31.10
2022-09-14T03:04:05.072Z,23.65
2022-09-14T03:06:31.791Z,22.40
2022-09-14T03:08:58.540Z,21.25
2022-09-14T03:11:24.954Z,20.52
2022-09-14T03:13:51.334Z,21.42
2022-09-14T03:16:18.585Z,27.95
2022-09-14T03:18:45.221Z,19.70
2022-09-14T03:21:13.880Z,22.00
2022-09-14T03:23:48.346Z,23.33
2022-09-14T03:26:17.680Z,20.20
2022-09-14T03:28:44.321Z,18.50
2022-09-14T03:31:12.446Z,21.20
2022-09-14T03:33:39.243Z,28.17
2022-09-14T03:36:12.294Z,23.42
2022-09-14T03:38:38.856Z,25.02
2022-09-14T03:41:10.076Z,23.33
2022-09-14T03:43:36.434Z,21.85
2022-09-14T03:46:11.152Z,23.17
2022-09-14T03:48:37.780Z,23.08
2022-09-14T03:51:06.347Z,32.47
2022-09-14T03:53:33.466Z,21.67
2022-09-14T03:55:59.886Z,22.90
2022-09-14T03:58:30.958Z,29.88
2022-09-14T04:01:03.749Z,34.47
2022-09-14T04:03:31.428Z,20.75
2022-09-14T04:05:58.467Z,21.23
2022-09-14T04:08:24.949Z,28.52
2022-09-14T04:10:51.735Z,24.42
2022-09-14T04:13:18.315Z,24.92
2022-09-14T04:15:44.759Z,23.63
2022-09-14T04:18:11.143Z,25.45
2022-09-14T04:20:37.531Z,22.17
2022-09-14T04:23:03.855Z,25.45
2022-09-14T04:25:30.218Z,27.13
2022-09-14T04:28:19.284Z,26.42
2022-09-14T04:30:43.174Z,21.00
2022-09-14T04:33:09.580Z,19.45
2022-09-14T04:35:37.690Z,23.38
2022-09-14T04:38:04.656Z,22.70
2022-09-14T04:40:31.416Z,19.25
2022-09-14T04:42:57.783Z,18.50
2022-09-14T04:45:24.200Z,31.65
2022-09-14T04:47:50.633Z,19.20
2022-09-14T04:50:17.082Z,22.88
2022-09-14T04:52:43.452Z,20.67
2022-09-14T04:55:10.248Z,19.50
2022-09-14T04:57:36.605Z,19.73
2022-09-14T05:00:04.180Z,19.20
2022-09-14T05:02:31.954Z,17.27
2022-09-14T05:04:58.930Z,18.85
2022-09-14T05:07:25.283Z,23.13
2022-09-14T05:09:51.768Z,20.00
2022-09-14T05:12:18.162Z,20.88
2022-09-14T05:14:44.505Z,19.98
2022-09-14T05:17:11.108Z,24.50
2022-09-14T05:19:37.459Z,17.83
2022-09-14T05:22:03.924Z,21.52
2022-09-14T05:24:30.297Z,23.50
2022-09-14T05:27:00.506Z,28.33
2022-09-14T05:29:29.546Z,26.98
2022-09-14T05:31:55.945Z,30.58
2022-09-14T05:34:22.354Z,24.80
2022-09-14T05:36:48.805Z,26.13
2022-09-14T05:39:17.722Z,26.35
2022-09-14T05:41:49.223Z,24.42
2022-09-14T05:44:15.591Z,26.20
2022-09-14T05:46:42.024Z,25.48
2022-09-14T05:49:08.480Z,26.33
2022-09-14T05:51:35.139Z,25.05
2022-09-14T05:54:01.674Z,27.15
2022-09-14T05:56:29.781Z,25.83
2022-09-14T05:58:56.418Z,30.65
2022-09-14T06:01:25.247Z,30.33
2022-09-14T06:03:56.780Z,29.02
2022-09-14T06:06:23.759Z,29.23
2022-09-14T06:08:52.575Z,27.15
2022-09-14T06:11:21.550Z,28.67
2022-09-14T06:13:48.247Z,26.75
2022-09-14T06:16:16.398Z,29.30
2022-09-14T06:18:44.788Z,27.05
2022-09-14T06:21:15.240Z,23.00
2022-09-14T06:23:42.328Z,25.25
2022-09-14T06:26:09.466Z,26.60
2022-09-14T06:28:36.152Z,25.88
2022-09-14T06:31:04.516Z,23.20
2022-09-14T06:33:31.840Z,22.23
2022-09-14T06:36:00.942Z,26.55
2022-09-14T06:38:28.561Z,31.20
2022-09-14T06:40:57.039Z,26.08
2022-09-14T06:43:28.579Z,26.20
2022-09-14T06:46:31.746Z,28.30
2022-09-14T06:49:10.615Z,23.20
2022-09-14T06:51:40.635Z,26.60
2022-09-14T06:54:07.599Z,28.55
2022-09-14T06:56:41.733Z,22.38
2022-09-14T06:59:11.426Z,27.23
2022-09-14T07:01:38.111Z,28.55
2022-09-14T07:04:05.753Z,27.88
2022-09-14T07:06:39.147Z,29.83
2022-09-14T07:09:06.248Z,27.58
2022-09-14T07:11:32.909Z,28.73
2022-09-14T07:13:59.456Z,26.45
2022-09-14T07:16:26.710Z,32.38
2022-09-14T07:18:54.835Z,29.60
2022-09-14T07:21:21.665Z,31.27
2022-09-14T07:23:48.596Z,24.70
2022-09-14T07:26:16.411Z,28.17
2022-09-14T07:28:44.483Z,32.65
2022-09-14T07:31:15.783Z,28.40
2022-09-14T07:33:42.240Z,28.83
2022-09-14T07:36:10.787Z,25.17
2022-09-14T07:38:51.626Z,24.73
2022-09-14T07:41:20.956Z,25.92
2022-09-14T07:43:51.844Z,24.35
2022-09-14T07:46:19.116Z,26.75
2022-09-14T07:48:45.818Z,25.88
2022-09-14T07:51:12.758Z,24.98
2022-09-14T07:53:42.747Z,27.08
2022-09-14T07:56:10.970Z,26.30
2022-09-14T07:58:37.345Z,22.17
2022-09-14T08:01:08.433Z,31.38
2022-09-14T08:03:36.471Z,24.58
2022-09-14T08:06:05.802Z,25.50
2022-09-14T08:08:36.095Z,23.35
2022-09-14T08:11:07.204Z,24.50
2022-09-14T08:13:38.588Z,19.40
2022-09-14T08:16:06.252Z,22.65
2022-09-14T08:18:35.168Z,23.48
2022-09-14T08:21:12.539Z,19.70
2022-09-14T08:23:40.042Z,18.20
2022-09-14T08:26:08.920Z,17.67
2022-09-14T08:28:36.454Z,17.58
2022-09-14T08:31:24.660Z,16.08
2022-09-14T08:33:57.146Z,15.52
2022-09-14T08:36:25.335Z,19.13
2022-09-14T08:38:51.825Z,14.10
2022-09-14T08:41:18.202Z,10.82
2022-09-14T08:43:44.753Z,20.20
2022-09-14T08:46:22.259Z,13.07
2022-09-14T08:48:49.239Z,9.82
2022-09-14T08:51:18.013Z,10.25
2022-09-14T08:53:45.352Z,10.20
2022-09-14T08:56:17.310Z,8.02
2022-09-14T08:58:53.055Z,11.95
2022-09-14T09:01:29.095Z,8.35
2022-09-14T09:04:12.064Z,9.20
2022-09-14T09:07:02.552Z,11.40
2022-09-14T09:09:47.303Z,7.13
2022-09-14T09:12:19.089Z,8.82
2022-09-14T09:14:51.723Z,7.22
2022-09-14T09:17:44.602Z,8.80
2022-09-14T09:20:16.871Z,9.98
2022-09-14T09:22:50.228Z,7.50
2022-09-14T09:25:23.752Z,6.93
2022-09-14T09:27:51.505Z,11.10
2022-09-14T09:30:18.161Z,13.60
2022-09-14T09:32:44.562Z,10.18
2022-09-14T09:35:18.066Z,11.45
2022-09-14T09:37:44.488Z,7.70
2022-09-14T09:40:20.580Z,11.85
2022-09-14T09:43:10.527Z,11.75
2022-09-14T09:46:03.053Z,8.55
2022-09-14T09:48:38.508Z,9.40
2022-09-14T09:51:10.798Z,7.88
2022-09-14T09:53:49.883Z,7.88
2022-09-14T09:56:23.414Z,8.50
2022-09-14T09:58:54.565Z,5.05
2022-09-14T10:01:33.114Z,4.72
2022-09-14T10:04:30.119Z,3.90
2022-09-14T10:07:00.649Z,9.27
2022-09-14T10:09:28.923Z,5.45
2022-09-14T10:12:01.669Z,5.63
2022-09-14T10:14:31.968Z,9.18
2022-09-14T10:17:17.263Z,7.82
2022-09-14T10:19:54.774Z,5.68
2022-09-14T10:22:32.052Z,3.67
2022-09-14T10:25:26.082Z,5.40
2022-09-14T10:27:55.373Z,5.22
2022-09-14T10:30:51.083Z,6.22
2022-09-14T10:33:18.612Z,6.82
2022-09-14T10:35:57.338Z,5.00
2022-09-14T10:38:36.051Z,5.03
2022-09-14T10:41:31.321Z,6.85
2022-09-14T10:44:03.673Z,7.82
2022-09-14T10:46:37.627Z,4.90
2022-09-14T10:49:04.058Z,4.68
2022-09-14T10:51:53.355Z,6.40
2022-09-14T10:54:48.189Z,4.78
2022-09-14T10:57:43.957Z,6.88
2022-09-14T11:00:20.964Z,5.20
2022-09-14T11:03:02.680Z,7.88
2022-09-14T11:05:38.695Z,7.35
2022-09-14T11:08:36.788Z,4.13
2022-09-14T11:11:25.022Z,6.78
2022-09-14T11:14:29.887Z,3.90
2022-09-14T11:16:56.230Z,3.45
2022-09-14T11:19:53.496Z,4.60
2022-09-14T11:22:57.282Z,9.07
2022-09-14T11:25:56.398Z,9.02
2022-09-14T11:28:30.936Z,6.20
2022-09-14T11:31:11.881Z,5.40
2022-09-14T11:33:51.840Z,6.10
2022-09-14T11:36:36.478Z,10.85
2022-09-14T11:39:13.080Z,5.63
2022-09-14T11:41:47.654Z,5.13
2022-09-14T11:44:21.659Z,6.35
2022-09-14T11:47:13.003Z,6.80
2022-09-14T11:49:57.663Z,7.38
2022-09-14T11:52:27.029Z,10.52
2022-09-14T11:54:54.413Z,5.30
2022-09-14T11:57:25.214Z,2.97
2022-09-14T11:59:52.990Z,5.85
2022-09-14T12:02:22.353Z,5.15
2022-09-14T12:05:07.134Z,3.95
2022-09-14T12:07:39.379Z,6.95
2022-09-14T12:10:18.079Z,6.80
2022-09-14T12:13:17.388Z,12.90
2022-09-14T12:15:45.428Z,5.85
2022-09-14T12:18:11.821Z,6.43
2022-09-14T12:20:38.529Z,6.70
2022-09-14T12:23:13.039Z,4.97
2022-09-14T12:25:52.919Z,9.05
2022-09-14T12:28:37.569Z,14.07
2022-09-14T12:31:04.046Z,6.30
2022-09-14T12:33:30.912Z,8.02
2022-09-14T12:35:57.863Z,10.68
2022-09-14T12:38:30.244Z,5.35
2022-09-14T12:40:57.512Z,8.05
2022-09-14T12:43:32.763Z,12.45
2022-09-14T12:46:31.649Z,12.27
2022-09-14T12:49:05.773Z,5.88
2022-09-14T12:51:48.194Z,7.40
2022-09-14T12:54:29.493Z,7.20
2022-09-14T12:57:08.057Z,6.13
2022-09-14T12:59:44.173Z,4.53
2022-09-14T13:02:48.393Z,3.42
2022-09-14T13:05:20.093Z,6.65
2022-09-14T13:07:47.230Z,3.25
2022-09-14T13:10:22.744Z,5.45
2022-09-14T13:12:50.777Z,2.53
2022-09-14T13:15:28.043Z,8.38
2022-09-14T13:18:03.751Z,3.22
2022-09-14T13:20:32.430Z,3.13
2022-09-14T13:22:59.209Z,4.75
2022-09-14T13:25:36.339Z,3.40
2022-09-14T13:28:16.804Z,6.25
2022-09-14T13:30:43.658Z,5.88
2022-09-14T13:33:17.669Z,4.10
2022-09-14T13:38:21.840Z,8.35
2022-09-14T13:40:50.485Z,4.28
2022-09-14T13:43:18.346Z,7.20
2022-09-14T13:45:46.306Z,8.05
2022-09-14T13:48:18.732Z,6.20
2022-09-14T13:50:48.677Z,9.30
2022-09-14T13:53:53.403Z,6.50
2022-09-14T13:56:29.813Z,4.13
2022-09-14T13:59:08.518Z,6.88
2022-09-14T14:01:41.379Z,5.57
2022-09-14T14:04:24.149Z,6.55
2022-09-14T14:07:22.256Z,6.10
2022-09-14T14:09:52.399Z,5.05
2022-09-14T14:12:26.709Z,5.22
2022-09-14T14:15:02.072Z,7.15
2022-09-14T14:17:33.400Z,7.00
2022-09-14T14:20:21.073Z,6.05
2022-09-14T14:23:11.028Z,5.20
2022-09-14T14:25:53.960Z,7.05
2022-09-14T14:28:26.006Z,4.78
2022-09-14T14:30:54.129Z,5.53
2022-09-14T14:33:21.049Z,4.32
2022-09-14T14:35:49.232Z,5.32
2022-09-14T14:38:16.323Z,5.68
2022-09-14T14:40:44.776Z,5.90
2022-09-14T14:43:18.826Z,4.13
2022-09-14T14:45:47.731Z,4.32
2022-09-14T14:48:14.348Z,5.20
2022-09-14T14:50:40.862Z,6.68
2022-09-14T14:53:07.707Z,6.30
2022-09-14T14:55:38.764Z,4.82
2022-09-14T14:58:08.601Z,3.55
2022-09-14T15:00:36.791Z,2.90
2022-09-14T15:03:03.185Z,4.22
2022-09-14T15:05:30.987Z,7.20
2022-09-14T15:07:57.635Z,6.85
2022-09-14T15:10:26.107Z,5.03
2022-09-14T15:12:52.646Z,6.90
2022-09-14T15:15:23.196Z,4.63
2022-09-14T15:17:50.267Z,5.43
2022-09-14T15:20:19.664Z,4.53
2022-09-14T15:22:47.141Z,5.05
2022-09-14T15:25:14.193Z,4.80
2022-09-14T15:27:40.819Z,4.70
2022-09-14T15:30:08.786Z,2.00
2022-09-14T15:32:35.619Z,6.72
2022-09-14T15:35:03.009Z,5.00
2022-09-14T15:37:29.520Z,3.00
2022-09-14T15:39:56.115Z,3.90
2022-09-14T15:42:24.439Z,5.38
2022-09-14T15:44:51.229Z,6.30
2022-09-14T15:47:17.629Z,3.38
2022-09-14T15:49:44.198Z,2.97
2022-09-14T15:52:11.626Z,3.75
2022-09-14T15:54:39.123Z,3.90
2022-09-14T15:57:07.925Z,2.45
2022-09-14T15:59:35.265Z,2.22
2022-09-14T16:02:02.327Z,2.15
2022-09-14T16:04:29.499Z,4.60
2022-09-14T16:06:55.846Z,4.95
2022-09-14T16:09:23.110Z,2.60
2022-09-14T16:11:49.589Z,3.05
2022-09-14T16:14:15.956Z,6.32
2022-09-14T16:16:42.424Z,1.88
2022-09-14T16:19:13.382Z,3.60
2022-09-14T16:21:41.593Z,1.83
2022-09-14T16:24:13.453Z,4.20
2022-09-14T16:26:40.543Z,5.40
2022-09-14T16:29:12.754Z,2.13
2022-09-14T16:31:41.429Z,4.63
2022-09-14T16:34:18.804Z,3.78
2022-09-14T16:36:48.509Z,2.10
2022-09-14T16:39:18.055Z,3.00
2022-09-14T16:41:45.099Z,2.25
2022-09-14T16:44:23.334Z,3.72
2022-09-14T16:46:50.948Z,5.50
2022-09-14T16:49:19.196Z,3.15
2022-09-14T16:51:47.749Z,2.05
2022-09-14T16:54:23.066Z,5.22
2022-09-14T16:56:50.264Z,3.85
2022-09-14T16:59:17.724Z,2.72
2022-09-14T17:01:48.692Z,3.70
2022-09-14T17:04:22.061Z,2.58
2022-09-14T17:06:50.336Z,6.38
2022-09-14T17:09:20.475Z,5.78
2022-09-14T17:11:48.507Z,4.38
2022-09-14T17:14:21.189Z,3.53
2022-09-14T17:16:47.788Z,3.10
2022-09-14T17:19:14.802Z,2.00
2022-09-14T17:21:43.103Z,2.92
2022-09-14T17:24:10.299Z,2.65
2022-09-14T17:26:37.084Z,5.25
2022-09-14T17:29:05.272Z,4.45
2022-09-14T17:31:34.720Z,4.00
2022-09-14T17:34:04.625Z,3.53
2022-09-14T17:36:31.448Z,3.88
2022-09-14T17:38:59.711Z,5.22
2022-09-14T17:41:28.058Z,1.70
2022-09-14T17:43:57.282Z,4.53
2022-09-14T17:46:26.778Z,3.47
2022-09-14T17:48:53.540Z,2.45
2022-09-14T17:51:22.525Z,2.88
2022-09-14T17:53:52.511Z,3.35
2022-09-14T17:56:21.431Z,5.20
2022-09-14T17:58:49.602Z,2.72
2022-09-14T18:01:18.969Z,4.72
2022-09-14T18:03:51.848Z,4.18
2022-09-14T18:06:19.096Z,4.22
2022-09-14T18:08:45.760Z,7.22
2022-09-14T18:11:15.950Z,2.88
2022-09-14T18:13:43.936Z,2.97
2022-09-14T18:16:11.241Z,5.15
2022-09-14T18:18:38.067Z,3.55
2022-09-14T18:21:04.777Z,7.32
2022-09-14T18:23:31.437Z,3.63
2022-09-14T18:25:58.052Z,5.75
2022-09-14T18:28:24.634Z,7.70
2022-09-14T18:31:00.048Z,3.67
2022-09-14T18:33:26.494Z,6.82
2022-09-14T18:35:54.085Z,4.75
2022-09-14T18:38:20.450Z,4.55
2022-09-14T18:40:47.015Z,10.18
2022-09-14T18:43:15.929Z,24.95
2022-09-14T18:45:44.143Z,15.98
2022-09-14T18:48:11.310Z,6.22
2022-09-14T18:50:38.693Z,11.90
2022-09-14T18:53:05.863Z,8.80
2022-09-14T18:55:33.708Z,15.52
2022-09-14T18:58:01.040Z,10.32
2022-09-14T19:00:28.186Z,13.30
2022-09-14T19:02:56.671Z,9.70
2022-09-14T19:05:24.979Z,6.88
2022-09-14T19:07:51.448Z,7.13
2022-09-14T19:10:17.988Z,10.73
2022-09-14T19:12:44.588Z,4.13
2022-09-14T19:15:11.559Z,2.63
2022-09-14T19:17:38.194Z,7.78
2022-09-14T19:20:06.975Z,3.22
2022-09-14T19:22:34.433Z,2.60
2022-09-14T19:25:00.848Z,4.28
2022-09-14T19:27:27.586Z,5.95
2022-09-14T19:29:54.020Z,3.15
2022-09-14T19:32:20.605Z,2.55
2022-09-14T19:34:47.051Z,7.20
2022-09-14T19:37:13.551Z,4.30
2022-09-14T19:39:42.147Z,6.60
2022-09-14T19:42:08.960Z,6.18
2022-09-14T19:44:35.348Z,5.25
2022-09-14T19:47:02.056Z,3.70
2022-09-14T19:49:28.498Z,5.05
2022-09-14T19:52:00.451Z,4.47
2022-09-14T19:54:26.864Z,5.15
2022-09-14T19:56:53.596Z,6.45
2022-09-14T19:59:20.107Z,6.32
2022-09-14T20:01:47.513Z,3.92
2022-09-14T20:04:15.665Z,9.85
2022-09-14T20:06:43.541Z,12.60
2022-09-14T20:09:16.280Z,3.78
2022-09-14T20:11:45.008Z,4.88
2022-09-14T20:14:15.198Z,7.63
2022-09-14T20:16:44.425Z,4.10
2022-09-14T20:19:16.279Z,7.00
2022-09-14T20:21:44.516Z,9.15
2022-09-14T20:24:16.603Z,5.72
2022-09-14T20:26:50.927Z,6.30
2022-09-14T20:29:19.587Z,5.80
2022-09-14T20:31:47.336Z,6.70
2022-09-14T20:34:16.203Z,8.40
2022-09-14T20:36:48.626Z,5.97
2022-09-14T20:39:15.823Z,5.97
2022-09-14T20:41:42.176Z,7.47
2022-09-14T20:44:11.938Z,7.13
2022-09-14T20:46:41.301Z,9.43
2022-09-14T20:49:11.957Z,8.30
2022-09-14T20:51:39.220Z,7.07
2022-09-14T20:54:07.075Z,4.97
2022-09-14T20:56:35.199Z,10.15
2022-09-14T20:59:06.862Z,8.57
2022-09-14T21:01:35.744Z,9.90
2022-09-14T21:04:05.049Z,7.35
2022-09-14T21:06:32.044Z,5.97
2022-09-14T21:08:59.864Z,6.20
2022-09-14T21:11:27.018Z,4.18
2022-09-14T21:13:55.098Z,4.75
2022-09-14T21:16:32.946Z,5.00
2022-09-14T21:19:02.188Z,5.50
2022-09-14T21:21:29.472Z,6.97
2022-09-14T21:23:57.310Z,7.53
2022-09-14T21:26:25.523Z,6.22
2022-09-14T21:28:59.739Z,10.70
2022-09-14T21:31:28.292Z,4.03
2022-09-14T21:33:57.883Z,8.15
2022-09-14T21:36:28.124Z,6.22
2022-09-14T21:38:57.018Z,9.15
2022-09-14T21:41:26.493Z,8.30
2022-09-14T21:43:53.449Z,7.93
2022-09-14T21:46:20.039Z,10.68
2022-09-14T21:48:46.639Z,5.95
2022-09-14T21:51:34.229Z,5.80
2022-09-14T21:54:05.000Z,10.45
2022-09-14T21:56:34.674Z,3.88
2022-09-14T21:59:03.091Z,7.35
2022-09-14T22:01:30.419Z,5.70
2022-09-14T22:03:57.791Z,5.65
2022-09-14T22:06:27.605Z,7.93
2022-09-14T22:08:54.402Z,6.43
2022-09-14T22:11:23.684Z,8.32
2022-09-14T22:14:07.978Z,6.45
2022-09-14T22:19:05.420Z,7.57
2022-09-14T22:21:35.514Z,6.32
2022-09-14T22:24:04.367Z,5.63
2022-09-14T22:26:32.027Z,6.13
2022-09-14T22:28:59.276Z,5.72
2022-09-14T22:31:27.383Z,7.40
2022-09-14T22:33:55.558Z,8.10
2022-09-14T22:36:22.564Z,8.60
2022-09-14T22:38:49.031Z,9.80
2022-09-14T22:41:22.169Z,8.07
2022-09-14T22:43:49.031Z,5.70
2022-09-14T22:46:17.057Z,8.40
2022-09-14T22:48:44.072Z,5.40
2022-09-14T22:51:20.367Z,6.40
2022-09-14T22:53:46.819Z,10.52
2022-09-14T22:56:23.061Z,8.88
2022-09-14T22:58:50.103Z,8.25
2022-09-14T23:01:25.195Z,9.93
2022-09-14T23:04:00.746Z,6.65
2022-09-14T23:06:29.647Z,9.18
2022-09-14T23:08:56.604Z,7.97
2022-09-14T23:11:23.088Z,10.27
2022-09-14T23:13:50.258Z,12.15
2022-09-14T23:16:19.095Z,5.68
2022-09-14T23:18:50.984Z,4.80
2022-09-14T23:21:18.163Z,10.30
2022-09-14T23:23:44.605Z,10.30
2022-09-14T23:26:12.031Z,6.50
2022-09-14T23:28:39.141Z,7.60
2022-09-14T23:31:06.300Z,5.03
2022-09-14T23:33:32.806Z,8.27
2022-09-14T23:35:59.389Z,6.55
2022-09-14T23:38:25.918Z,6.65
2022-09-14T23:40:52.382Z,6.32
2022-09-14T23:43:19.440Z,5.13
2022-09-14T23:45:47.236Z,6.45
2022-09-14T23:48:14.817Z,4.68
2022-09-14T23:50:41.242Z,6.15
2022-09-14T23:53:08.291Z,8.93
2022-09-14T23:55:35.114Z,3.95
2022-09-14T23:58:01.488Z,5.00
